sensor_id;sensor_type;location;lat;lon;timestamp;pressure;altitude;pressure_sealevel;temperature;humidity
30897;BME280;64229;52.246;21.054;2023-09-30T00:00:21;100714.72;;;16.99;79.52
30897;BME280;64229;52.246;21.054;2023-09-30T00:02:46;100708.22;;;16.87;80.25
30897;BME280;64229;52.246;21.054;2023-09-30T00:05:11;100713.25;;;16.93;80.32
30897;BME280;64229;52.246;21.054;2023-09-30T00:07:37;100712.44;;;16.93;80.20
30897;BME280;64229;52.246;21.054;2023-09-30T00:10:03;100715.63;;;16.95;80.19
30897;BME280;64229;52.246;21.054;2023-09-30T00:12:28;100711.22;;;16.99;79.72
30897;BME280;64229;52.246;21.054;2023-09-30T00:14:54;100707.25;;;17.10;79.32
30897;BME280;64229;52.246;21.054;2023-09-30T00:17:19;100688.50;;;17.05;79.30
30897;BME280;64229;52.246;21.054;2023-09-30T00:19:44;100707.88;;;17.07;79.37
30897;BME280;64229;52.246;21.054;2023-09-30T00:22:10;100688.00;;;17.03;78.97
30897;BME280;64229;52.246;21.054;2023-09-30T00:24:35;100702.47;;;17.07;79.29
30897;BME280;64229;52.246;21.054;2023-09-30T00:27:00;100688.91;;;17.12;78.26
30897;BME280;64229;52.246;21.054;2023-09-30T00:29:26;100697.69;;;17.18;78.51
30897;BME280;64229;52.246;21.054;2023-09-30T00:31:51;100696.28;;;17.06;78.93
30897;BME280;64229;52.246;21.054;2023-09-30T00:34:17;100690.28;;;16.96;79.41
30897;BME280;64229;52.246;21.054;2023-09-30T00:36:42;100695.34;;;16.97;79.83
30897;BME280;64229;52.246;21.054;2023-09-30T00:39:08;100692.78;;;16.92;80.04
30897;BME280;64229;52.246;21.054;2023-09-30T00:41:34;100701.16;;;16.91;80.23
30897;BME280;64229;52.246;21.054;2023-09-30T00:44:00;100697.38;;;16.92;80.02
30897;BME280;64229;52.246;21.054;2023-09-30T00:46:29;100691.38;;;16.95;80.05
30897;BME280;64229;52.246;21.054;2023-09-30T00:48:57;100689.78;;;16.94;79.95
30897;BME280;64229;52.246;21.054;2023-09-30T00:51:23;100670.25;;;16.69;80.58
30897;BME280;64229;52.246;21.054;2023-09-30T00:53:53;100690.63;;;16.75;80.88
30897;BME280;64229;52.246;21.054;2023-09-30T00:56:19;100687.88;;;16.62;81.80
30897;BME280;64229;52.246;21.054;2023-09-30T00:58:47;100692.75;;;16.60;81.99
30897;BME280;64229;52.246;21.054;2023-09-30T01:01:13;100690.34;;;16.58;82.09
30897;BME280;64229;52.246;21.054;2023-09-30T01:03:38;100691.25;;;16.67;82.10
30897;BME280;64229;52.246;21.054;2023-09-30T01:06:04;100687.44;;;16.73;81.50
30897;BME280;64229;52.246;21.054;2023-09-30T01:08:31;100683.63;;;16.74;81.03
30897;BME280;64229;52.246;21.054;2023-09-30T01:10:58;100695.41;;;16.78;80.80
30897;BME280;64229;52.246;21.054;2023-09-30T01:13:23;100705.19;;;16.74;81.10
30897;BME280;64229;52.246;21.054;2023-09-30T01:15:56;100706.19;;;16.78;81.23
30897;BME280;64229;52.246;21.054;2023-09-30T01:18:21;100704.72;;;16.86;80.68
30897;BME280;64229;52.246;21.054;2023-09-30T01:20:47;100699.75;;;16.93;80.09
30897;BME280;64229;52.246;21.054;2023-09-30T01:23:13;100699.16;;;16.96;79.72
30897;BME280;64229;52.246;21.054;2023-09-30T01:25:38;100698.38;;;17.10;78.75
30897;BME280;64229;52.246;21.054;2023-09-30T01:28:07;100702.16;;;17.09;78.73
30897;BME280;64229;52.246;21.054;2023-09-30T01:30:33;100698.47;;;16.91;79.23
30897;BME280;64229;52.246;21.054;2023-09-30T01:32:58;100691.63;;;16.80;79.95
30897;BME280;64229;52.246;21.054;2023-09-30T01:35:24;100694.13;;;16.76;80.33
30897;BME280;64229;52.246;21.054;2023-09-30T01:37:49;100681.88;;;16.65;81.48
30897;BME280;64229;52.246;21.054;2023-09-30T01:40:14;100686.94;;;16.53;82.44
30897;BME280;64229;52.246;21.054;2023-09-30T01:42:39;100690.50;;;16.48;83.00
30897;BME280;64229;52.246;21.054;2023-09-30T01:45:05;100682.47;;;16.62;82.39
30897;BME280;64229;52.246;21.054;2023-09-30T01:47:31;100684.94;;;16.58;82.78
30897;BME280;64229;52.246;21.054;2023-09-30T01:49:56;100677.66;;;16.59;83.00
30897;BME280;64229;52.246;21.054;2023-09-30T01:52:21;100683.00;;;16.45;83.65
30897;BME280;64229;52.246;21.054;2023-09-30T01:54:46;100669.78;;;16.48;83.47
30897;BME280;64229;52.246;21.054;2023-09-30T01:57:12;100672.03;;;16.41;84.21
30897;BME280;64229;52.246;21.054;2023-09-30T01:59:38;100669.00;;;16.29;85.11
30897;BME280;64229;52.246;21.054;2023-09-30T02:02:04;100665.38;;;16.20;86.02
30897;BME280;64229;52.246;21.054;2023-09-30T02:04:29;100668.13;;;16.15;86.55
30897;BME280;64229;52.246;21.054;2023-09-30T02:06:56;100661.00;;;16.05;86.98
30897;BME280;64229;52.246;21.054;2023-09-30T02:09:21;100674.44;;;16.05;87.85
30897;BME280;64229;52.246;21.054;2023-09-30T02:11:46;100675.03;;;16.02;88.06
30897;BME280;64229;52.246;21.054;2023-09-30T02:14:11;100659.34;;;15.90;88.90
30897;BME280;64229;52.246;21.054;2023-09-30T02:16:40;100661.66;;;15.97;88.90
30897;BME280;64229;52.246;21.054;2023-09-30T02:19:05;100668.22;;;15.91;89.67
30897;BME280;64229;52.246;21.054;2023-09-30T02:21:31;100668.28;;;15.86;90.26
30897;BME280;64229;52.246;21.054;2023-09-30T02:23:56;100663.25;;;15.79;90.94
30897;BME280;64229;52.246;21.054;2023-09-30T02:26:22;100669.22;;;15.76;91.62
30897;BME280;64229;52.246;21.054;2023-09-30T02:28:50;100667.69;;;15.70;91.92
30897;BME280;64229;52.246;21.054;2023-09-30T02:31:16;100663.97;;;15.66;91.88
30897;BME280;64229;52.246;21.054;2023-09-30T02:33:43;100668.06;;;15.64;92.72
30897;BME280;64229;52.246;21.054;2023-09-30T02:36:09;100668.84;;;15.64;92.40
30897;BME280;64229;52.246;21.054;2023-09-30T02:38:35;100671.53;;;15.64;92.32
30897;BME280;64229;52.246;21.054;2023-09-30T02:41:02;100669.41;;;15.61;92.36
30897;BME280;64229;52.246;21.054;2023-09-30T02:43:27;100668.84;;;15.64;92.38
30897;BME280;64229;52.246;21.054;2023-09-30T02:45:53;100668.31;;;15.62;92.48
30897;BME280;64229;52.246;21.054;2023-09-30T02:48:18;100664.03;;;15.61;92.97
30897;BME280;64229;52.246;21.054;2023-09-30T02:50:43;100658.41;;;15.57;93.00
30897;BME280;64229;52.246;21.054;2023-09-30T02:53:12;100656.06;;;15.51;93.57
30897;BME280;64229;52.246;21.054;2023-09-30T02:55:41;100659.84;;;15.50;93.56
30897;BME280;64229;52.246;21.054;2023-09-30T02:58:10;100663.84;;;15.52;93.30
30897;BME280;64229;52.246;21.054;2023-09-30T03:00:35;100675.13;;;15.54;93.40
30897;BME280;64229;52.246;21.054;2023-09-30T03:03:03;100676.47;;;15.52;93.85
30897;BME280;64229;52.246;21.054;2023-09-30T03:05:28;100678.34;;;15.56;93.58
30897;BME280;64229;52.246;21.054;2023-09-30T03:07:57;100664.28;;;15.59;93.21
30897;BME280;64229;52.246;21.054;2023-09-30T03:10:22;100665.69;;;15.57;93.49
30897;BME280;64229;52.246;21.054;2023-09-30T03:12:52;100659.44;;;15.61;92.74
30897;BME280;64229;52.246;21.054;2023-09-30T03:15:18;100658.41;;;15.57;93.11
30897;BME280;64229;52.246;21.054;2023-09-30T03:17:43;100659.53;;;15.51;93.37
30897;BME280;64229;52.246;21.054;2023-09-30T03:20:09;100658.69;;;15.56;92.67
30897;BME280;64229;52.246;21.054;2023-09-30T03:22:40;100647.44;;;15.54;92.80
30897;BME280;64229;52.246;21.054;2023-09-30T03:25:06;100653.31;;;15.56;92.84
30897;BME280;64229;52.246;21.054;2023-09-30T03:27:33;100656.06;;;15.51;93.24
30897;BME280;64229;52.246;21.054;2023-09-30T03:29:58;100652.66;;;15.45;93.89
30897;BME280;64229;52.246;21.054;2023-09-30T03:32:23;100651.59;;;15.41;94.50
30897;BME280;64229;52.246;21.054;2023-09-30T03:34:50;100650.00;;;15.40;94.86
30897;BME280;64229;52.246;21.054;2023-09-30T03:37:15;100655.38;;;15.40;94.95
30897;BME280;64229;52.246;21.054;2023-09-30T03:39:40;100654.59;;;15.40;95.00
30897;BME280;64229;52.246;21.054;2023-09-30T03:42:06;100656.97;;;15.41;95.48
30897;BME280;64229;52.246;21.054;2023-09-30T03:44:31;100650.28;;;15.39;95.84
30897;BME280;64229;52.246;21.054;2023-09-30T03:46:57;100653.78;;;15.39;95.69
30897;BME280;64229;52.246;21.054;2023-09-30T03:49:24;100649.28;;;15.34;95.99
30897;BME280;64229;52.246;21.054;2023-09-30T03:51:49;100646.88;;;15.33;96.54
30897;BME280;64229;52.246;21.054;2023-09-30T03:54:16;100649.91;;;15.26;96.97
30897;BME280;64229;52.246;21.054;2023-09-30T03:56:43;100642.34;;;15.28;96.89
30897;BME280;64229;52.246;21.054;2023-09-30T03:59:08;100634.78;;;15.30;96.16
30897;BME280;64229;52.246;21.054;2023-09-30T04:01:34;100630.44;;;15.34;95.83
30897;BME280;64229;52.246;21.054;2023-09-30T04:03:59;100652.75;;;15.35;95.96
30897;BME280;64229;52.246;21.054;2023-09-30T04:06:25;100654.88;;;15.38;95.99
30897;BME280;64229;52.246;21.054;2023-09-30T04:08:50;100650.81;;;15.41;96.15
30897;BME280;64229;52.246;21.054;2023-09-30T04:11:15;100651.34;;;15.43;95.62
30897;BME280;64229;52.246;21.054;2023-09-30T04:13:46;100653.66;;;15.49;95.29
30897;BME280;64229;52.246;21.054;2023-09-30T04:16:11;100653.66;;;15.49;95.35
30897;BME280;64229;52.246;21.054;2023-09-30T04:18:36;100653.44;;;15.46;95.32
30897;BME280;64229;52.246;21.054;2023-09-30T04:21:03;100650.53;;;15.42;95.52
30897;BME280;64229;52.246;21.054;2023-09-30T04:23:29;100645.97;;;15.43;95.21
30897;BME280;64229;52.246;21.054;2023-09-30T04:25:54;100662.31;;;15.46;95.12
30897;BME280;64229;52.246;21.054;2023-09-30T04:28:19;100655.03;;;15.47;95.35
30897;BME280;64229;52.246;21.054;2023-09-30T04:30:49;100652.34;;;15.47;94.86
30897;BME280;64229;52.246;21.054;2023-09-30T04:33:16;100638.75;;;15.38;94.80
30897;BME280;64229;52.246;21.054;2023-09-30T04:35:43;100650.69;;;15.51;94.27
30897;BME280;64229;52.246;21.054;2023-09-30T04:38:08;100645.66;;;15.68;93.42
30897;BME280;64229;52.246;21.054;2023-09-30T04:40:34;100654.81;;;15.67;92.84
30897;BME280;64229;52.246;21.054;2023-09-30T04:42:59;100656.63;;;15.72;92.22
30897;BME280;64229;52.246;21.054;2023-09-30T04:45:25;100645.31;;;15.75;91.88
30897;BME280;64229;52.246;21.054;2023-09-30T04:47:51;100638.88;;;15.71;91.68
30897;BME280;64229;52.246;21.054;2023-09-30T04:50:17;100645.22;;;15.80;91.34
30897;BME280;64229;52.246;21.054;2023-09-30T04:52:42;100648.72;;;15.80;91.29
30897;BME280;64229;52.246;21.054;2023-09-30T04:55:09;100645.72;;;15.82;91.03
30897;BME280;64229;52.246;21.054;2023-09-30T04:57:37;100644.38;;;15.84;90.53
30897;BME280;64229;52.246;21.054;2023-09-30T05:00:02;100646.47;;;15.87;90.41
30897;BME280;64229;52.246;21.054;2023-09-30T05:02:36;100647.72;;;15.95;90.10
30897;BME280;64229;52.246;21.054;2023-09-30T05:05:01;100644.72;;;15.97;90.03
30897;BME280;64229;52.246;21.054;2023-09-30T05:07:27;100646.31;;;15.98;90.03
30897;BME280;64229;52.246;21.054;2023-09-30T05:09:54;100643.63;;;15.98;89.76
30897;BME280;64229;52.246;21.054;2023-09-30T05:12:19;100640.34;;;16.01;89.79
30897;BME280;64229;52.246;21.054;2023-09-30T05:14:45;100645.44;;;16.02;89.52
30897;BME280;64229;52.246;21.054;2023-09-30T05:17:10;100640.34;;;16.01;89.65
30897;BME280;64229;52.246;21.054;2023-09-30T05:19:37;100650.00;;;16.02;89.61
30897;BME280;64229;52.246;21.054;2023-09-30T05:22:02;100642.81;;;15.97;89.50
30897;BME280;64229;52.246;21.054;2023-09-30T05:24:28;100653.94;;;16.09;89.71
30897;BME280;64229;52.246;21.054;2023-09-30T05:26:54;100658.25;;;16.10;89.46
30897;BME280;64229;52.246;21.054;2023-09-30T05:29:19;100660.50;;;16.03;90.22
30897;BME280;64229;52.246;21.054;2023-09-30T05:31:45;100665.66;;;16.00;90.26
30897;BME280;64229;52.246;21.054;2023-09-30T05:34:10;100667.34;;;15.96;90.74
30897;BME280;64229;52.246;21.054;2023-09-30T05:36:36;100655.34;;;15.88;90.27
30897;BME280;64229;52.246;21.054;2023-09-30T05:39:01;100666.75;;;15.99;90.13
30897;BME280;64229;52.246;21.054;2023-09-30T05:41:28;100664.38;;;15.97;90.37
30897;BME280;64229;52.246;21.054;2023-09-30T05:43:53;100665.66;;;16.00;90.26
30897;BME280;64229;52.246;21.054;2023-09-30T05:46:18;100669.44;;;15.99;90.74
30897;BME280;64229;52.246;21.054;2023-09-30T05:48:44;100667.56;;;15.99;90.90
30897;BME280;64229;52.246;21.054;2023-09-30T05:51:09;100668.16;;;15.96;91.23
30897;BME280;64229;52.246;21.054;2023-09-30T05:53:34;100662.38;;;15.84;91.42
30897;BME280;64229;52.246;21.054;2023-09-30T05:56:01;100674.88;;;15.94;91.69
30897;BME280;64229;52.246;21.054;2023-09-30T05:58:26;100675.69;;;15.94;91.77
30897;BME280;64229;52.246;21.054;2023-09-30T06:00:52;100685.53;;;16.04;91.68
30897;BME280;64229;52.246;21.054;2023-09-30T06:03:18;100691.50;;;16.01;92.67
30897;BME280;64229;52.246;21.054;2023-09-30T06:05:44;100692.50;;;16.05;92.86
30897;BME280;64229;52.246;21.054;2023-09-30T06:08:10;100695.13;;;16.10;93.09
30897;BME280;64229;52.246;21.054;2023-09-30T06:10:39;100695.19;;;16.24;92.71
30897;BME280;64229;52.246;21.054;2023-09-30T06:13:08;100690.00;;;16.46;91.77
30897;BME280;64229;52.246;21.054;2023-09-30T06:15:34;100700.31;;;16.58;91.25
30897;BME280;64229;52.246;21.054;2023-09-30T06:18:01;100700.13;;;16.87;90.39
30897;BME280;64229;52.246;21.054;2023-09-30T06:20:26;100702.78;;;17.05;89.03
30897;BME280;64229;52.246;21.054;2023-09-30T06:22:52;100701.78;;;17.29;87.89
30897;BME280;64229;52.246;21.054;2023-09-30T06:25:19;100706.38;;;17.42;87.58
30897;BME280;64229;52.246;21.054;2023-09-30T06:27:46;100705.28;;;17.57;87.26
30897;BME280;64229;52.246;21.054;2023-09-30T06:30:12;100710.38;;;17.58;87.79
30897;BME280;64229;52.246;21.054;2023-09-30T06:32:38;100708.31;;;17.69;88.46
30897;BME280;64229;52.246;21.054;2023-09-30T06:35:04;100709.78;;;17.75;88.99
30897;BME280;64229;52.246;21.054;2023-09-30T06:37:31;100710.97;;;17.83;89.64
30897;BME280;64229;52.246;21.054;2023-09-30T06:39:56;100718.75;;;17.98;90.09
30897;BME280;64229;52.246;21.054;2023-09-30T06:42:22;100723.06;;;17.99;89.74
30897;BME280;64229;52.246;21.054;2023-09-30T06:44:47;100714.88;;;17.90;91.27
30897;BME280;64229;52.246;21.054;2023-09-30T06:47:12;100721.25;;;17.95;92.09
30897;BME280;64229;52.246;21.054;2023-09-30T06:49:38;100730.78;;;17.92;92.81
30897;BME280;64229;52.246;21.054;2023-09-30T06:52:04;100730.47;;;17.93;93.43
30897;BME280;64229;52.246;21.054;2023-09-30T06:54:31;100729.88;;;17.83;94.19
30897;BME280;64229;52.246;21.054;2023-09-30T06:56:56;100724.19;;;17.71;95.30
30897;BME280;64229;52.246;21.054;2023-09-30T06:59:21;100741.28;;;17.66;96.06
30897;BME280;64229;52.246;21.054;2023-09-30T07:01:47;100738.66;;;17.61;96.58
30897;BME280;64229;52.246;21.054;2023-09-30T07:04:12;100737.78;;;17.79;97.05
30897;BME280;64229;52.246;21.054;2023-09-30T07:06:37;100749.88;;;17.68;97.89
30897;BME280;64229;52.246;21.054;2023-09-30T07:09:03;100751.09;;;17.76;98.67
30897;BME280;64229;52.246;21.054;2023-09-30T07:11:30;100746.03;;;17.97;97.22
30897;BME280;64229;52.246;21.054;2023-09-30T07:13:58;100748.56;;;17.93;97.29
30897;BME280;64229;52.246;21.054;2023-09-30T07:16:23;100752.78;;;17.85;98.45
30897;BME280;64229;52.246;21.054;2023-09-30T07:18:48;100757.50;;;17.80;99.22
30897;BME280;64229;52.246;21.054;2023-09-30T07:21:15;100754.56;;;17.90;98.61
30897;BME280;64229;52.246;21.054;2023-09-30T07:23:40;100761.28;;;17.79;98.61
30897;BME280;64229;52.246;21.054;2023-09-30T07:26:06;100762.97;;;18.02;97.59
30897;BME280;64229;52.246;21.054;2023-09-30T07:28:32;100748.66;;;18.02;96.94
30897;BME280;64229;52.246;21.054;2023-09-30T07:30:58;100762.47;;;18.00;97.31
30897;BME280;64229;52.246;21.054;2023-09-30T07:33:23;100768.66;;;18.01;97.88
30897;BME280;64229;52.246;21.054;2023-09-30T07:35:48;100759.47;;;18.02;97.96
30897;BME280;64229;52.246;21.054;2023-09-30T07:38:14;100768.75;;;18.09;98.22
30897;BME280;64229;52.246;21.054;2023-09-30T07:40:40;100762.84;;;18.07;99.34
30897;BME280;64229;52.246;21.054;2023-09-30T07:43:05;100774.38;;;17.99;100.00
30897;BME280;64229;52.246;21.054;2023-09-30T07:45:30;100769.09;;;17.80;100.00
30897;BME280;64229;52.246;21.054;2023-09-30T07:47:56;100773.56;;;17.85;100.00
30897;BME280;64229;52.246;21.054;2023-09-30T07:50:23;100769.88;;;17.67;100.00
30897;BME280;64229;52.246;21.054;2023-09-30T07:52:48;100773.59;;;17.71;100.00
30897;BME280;64229;52.246;21.054;2023-09-30T07:55:13;100771.84;;;17.61;100.00
30897;BME280;64229;52.246;21.054;2023-09-30T07:57:41;100770.66;;;17.68;100.00
30897;BME280;64229;52.246;21.054;2023-09-30T08:00:08;100762.75;;;17.44;100.00
30897;BME280;64229;52.246;21.054;2023-09-30T08:02:35;100770.09;;;17.71;100.00
30897;BME280;64229;52.246;21.054;2023-09-30T08:05:02;100771.53;;;17.63;100.00
30897;BME280;64229;52.246;21.054;2023-09-30T08:07:27;100766.59;;;17.70;100.00
30897;BME280;64229;52.246;21.054;2023-09-30T08:09:52;100766.97;;;17.91;100.00
30897;BME280;64229;52.246;21.054;2023-09-30T08:12:17;100767.28;;;17.89;100.00
30897;BME280;64229;52.246;21.054;2023-09-30T08:14:43;100777.38;;;17.84;100.00
30897;BME280;64229;52.246;21.054;2023-09-30T08:17:11;100777.06;;;17.99;100.00
30897;BME280;64229;52.246;21.054;2023-09-30T08:19:37;100778.53;;;18.19;100.00
30897;BME280;64229;52.246;21.054;2023-09-30T08:22:02;100776.13;;;18.17;100.00
30897;BME280;64229;52.246;21.054;2023-09-30T08:24:29;100779.88;;;18.08;100.00
30897;BME280;64229;52.246;21.054;2023-09-30T08:26:54;100779.66;;;18.04;100.00
30897;BME280;64229;52.246;21.054;2023-09-30T08:29:21;100782.81;;;18.34;100.00
30897;BME280;64229;52.246;21.054;2023-09-30T08:31:46;100785.50;;;18.34;100.00
30897;BME280;64229;52.246;21.054;2023-09-30T08:34:12;100783.25;;;18.13;100.00
30897;BME280;64229;52.246;21.054;2023-09-30T08:36:40;100773.28;;;18.36;100.00
30897;BME280;64229;52.246;21.054;2023-09-30T08:39:05;100774.63;;;18.25;100.00
30897;BME280;64229;52.246;21.054;2023-09-30T08:41:33;100775.09;;;18.27;100.00
30897;BME280;64229;52.246;21.054;2023-09-30T08:44:00;100782.22;;;18.23;100.00
30897;BME280;64229;52.246;21.054;2023-09-30T08:46:31;100775.63;;;18.29;100.00
30897;BME280;64229;52.246;21.054;2023-09-30T08:49:01;100780.03;;;18.25;100.00
30897;BME280;64229;52.246;21.054;2023-09-30T08:51:28;100784.63;;;18.25;100.00
30897;BME280;64229;52.246;21.054;2023-09-30T08:53:54;100769.22;;;18.25;100.00
30897;BME280;64229;52.246;21.054;2023-09-30T08:56:25;100783.13;;;18.32;100.00
30897;BME280;64229;52.246;21.054;2023-09-30T08:58:52;100791.72;;;18.34;100.00
30897;BME280;64229;52.246;21.054;2023-09-30T09:01:19;100796.22;;;18.25;100.00
30897;BME280;64229;52.246;21.054;2023-09-30T09:03:44;100790.44;;;18.18;100.00
30897;BME280;64229;52.246;21.054;2023-09-30T09:06:12;100799.56;;;18.08;100.00
30897;BME280;64229;52.246;21.054;2023-09-30T09:08:37;100797.94;;;18.07;100.00
30897;BME280;64229;52.246;21.054;2023-09-30T09:11:03;100801.16;;;18.09;100.00
30897;BME280;64229;52.246;21.054;2023-09-30T09:13:46;100799.84;;;18.20;100.00
30897;BME280;64229;52.246;21.054;2023-09-30T09:16:14;100804.03;;;18.27;100.00
30897;BME280;64229;52.246;21.054;2023-09-30T09:18:39;100795.56;;;18.19;100.00
30897;BME280;64229;52.246;21.054;2023-09-30T09:21:16;100799.31;;;18.32;100.00
30897;BME280;64229;52.246;21.054;2023-09-30T09:23:43;100809.53;;;18.35;100.00
30897;BME280;64229;52.246;21.054;2023-09-30T09:26:13;100810.53;;;18.26;100.00
30897;BME280;64229;52.246;21.054;2023-09-30T09:28:49;100813.75;;;18.14;100.00
30897;BME280;64229;52.246;21.054;2023-09-30T09:31:22;100815.56;;;18.18;100.00
30897;BME280;64229;52.246;21.054;2023-09-30T09:33:48;100819.28;;;18.09;100.00
30897;BME280;64229;52.246;21.054;2023-09-30T09:36:15;100821.56;;;18.15;100.00
30897;BME280;64229;52.246;21.054;2023-09-30T09:38:48;100805.19;;;17.98;100.00
30897;BME280;64229;52.246;21.054;2023-09-30T09:41:15;100809.56;;;18.21;100.00
30897;BME280;64229;52.246;21.054;2023-09-30T09:43:41;100822.25;;;18.21;100.00
30897;BME280;64229;52.246;21.054;2023-09-30T09:46:08;100810.38;;;18.08;100.00
30897;BME280;64229;52.246;21.054;2023-09-30T09:48:37;100813.94;;;18.17;100.00
30897;BME280;64229;52.246;21.054;2023-09-30T09:51:04;100813.88;;;18.09;100.00
30897;BME280;64229;52.246;21.054;2023-09-30T09:53:36;100820.88;;;17.96;100.00
30897;BME280;64229;52.246;21.054;2023-09-30T09:56:03;100822.19;;;17.99;100.00
30897;BME280;64229;52.246;21.054;2023-09-30T09:58:32;100812.75;;;18.24;100.00
30897;BME280;64229;52.246;21.054;2023-09-30T10:01:00;100828.78;;;18.20;100.00
30897;BME280;64229;52.246;21.054;2023-09-30T10:03:26;100834.28;;;18.01;100.00
30897;BME280;64229;52.246;21.054;2023-09-30T10:05:51;100837.00;;;17.87;100.00
30897;BME280;64229;52.246;21.054;2023-09-30T10:08:20;100838.50;;;17.80;100.00
30897;BME280;64229;52.246;21.054;2023-09-30T10:10:46;100832.47;;;17.83;100.00
30897;BME280;64229;52.246;21.054;2023-09-30T10:13:49;100837.38;;;17.81;100.00
30897;BME280;64229;52.246;21.054;2023-09-30T10:19:15;100855.97;;;17.82;100.00
30897;BME280;64229;52.246;21.054;2023-09-30T10:24:43;100851.50;;;17.78;100.00
30897;BME280;64229;52.246;21.054;2023-09-30T10:30:10;100864.00;;;17.87;100.00
30897;BME280;64229;52.246;21.054;2023-09-30T10:36:04;100876.97;;;17.85;100.00
30897;BME280;64229;52.246;21.054;2023-09-30T10:40:52;100894.09;;;17.81;100.00
30897;BME280;64229;52.246;21.054;2023-09-30T10:43:36;100899.19;;;17.82;100.00
30897;BME280;64229;52.246;21.054;2023-09-30T10:46:02;100898.09;;;17.83;100.00
30897;BME280;64229;52.246;21.054;2023-09-30T10:50:54;100909.00;;;17.78;100.00
30897;BME280;64229;52.246;21.054;2023-09-30T10:53:21;100907.13;;;17.60;100.00
30897;BME280;64229;52.246;21.054;2023-09-30T10:55:47;100924.41;;;17.59;100.00
30897;BME280;64229;52.246;21.054;2023-09-30T10:58:19;100917.53;;;17.67;100.00
30897;BME280;64229;52.246;21.054;2023-09-30T11:00:54;100922.25;;;17.75;100.00
30897;BME280;64229;52.246;21.054;2023-09-30T11:03:20;100918.56;;;17.84;100.00
30897;BME280;64229;52.246;21.054;2023-09-30T11:05:50;100919.06;;;17.73;100.00
30897;BME280;64229;52.246;21.054;2023-09-30T11:08:21;100927.38;;;17.76;100.00
30897;BME280;64229;52.246;21.054;2023-09-30T11:10:52;100922.94;;;17.67;100.00
30897;BME280;64229;52.246;21.054;2023-09-30T11:13:18;100945.50;;;17.76;100.00
30897;BME280;64229;52.246;21.054;2023-09-30T11:15:46;100945.19;;;17.77;100.00
30897;BME280;64229;52.246;21.054;2023-09-30T11:18:16;100950.09;;;17.89;100.00
30897;BME280;64229;52.246;21.054;2023-09-30T11:20:43;100958.28;;;17.84;100.00
30897;BME280;64229;52.246;21.054;2023-09-30T11:23:10;100964.16;;;17.72;100.00
30897;BME280;64229;52.246;21.054;2023-09-30T11:25:36;100964.09;;;17.77;100.00
30897;BME280;64229;52.246;21.054;2023-09-30T11:28:17;100963.34;;;17.72;100.00
30897;BME280;64229;52.246;21.054;2023-09-30T11:31:13;100950.56;;;17.45;100.00
30897;BME280;64229;52.246;21.054;2023-09-30T11:33:53;100966.91;;;17.34;100.00
30897;BME280;64229;52.246;21.054;2023-09-30T11:36:20;100980.47;;;17.29;100.00
30897;BME280;64229;52.246;21.054;2023-09-30T11:38:47;100968.94;;;17.05;100.00
30897;BME280;64229;52.246;21.054;2023-09-30T11:41:14;100963.91;;;16.98;100.00
30897;BME280;64229;52.246;21.054;2023-09-30T11:43:58;100939.06;;;17.01;100.00
30897;BME280;64229;52.246;21.054;2023-09-30T11:46:24;100959.53;;;17.21;100.00
30897;BME280;64229;52.246;21.054;2023-09-30T11:49:01;100964.13;;;17.40;100.00
30897;BME280;64229;52.246;21.054;2023-09-30T11:51:28;100967.97;;;17.52;100.00
30897;BME280;64229;52.246;21.054;2023-09-30T11:53:54;100972.88;;;17.64;100.00
30897;BME280;64229;52.246;21.054;2023-09-30T11:56:20;100966.78;;;17.58;100.00
30897;BME280;64229;52.246;21.054;2023-09-30T11:58:47;100974.75;;;17.50;100.00
30897;BME280;64229;52.246;21.054;2023-09-30T12:01:14;100978.69;;;17.57;100.00
30897;BME280;64229;52.246;21.054;2023-09-30T12:03:39;100977.16;;;17.51;99.75
30897;BME280;64229;52.246;21.054;2023-09-30T12:06:08;100973.91;;;17.68;97.92
30897;BME280;64229;52.246;21.054;2023-09-30T12:08:41;100947.06;;;17.44;99.13
30897;BME280;64229;52.246;21.054;2023-09-30T12:11:07;100966.59;;;17.55;100.00
30897;BME280;64229;52.246;21.054;2023-09-30T12:13:32;100962.31;;;17.68;98.59
30897;BME280;64229;52.246;21.054;2023-09-30T12:15:57;100965.59;;;17.64;99.40
30897;BME280;64229;52.246;21.054;2023-09-30T12:18:23;100971.88;;;17.60;100.00
30897;BME280;64229;52.246;21.054;2023-09-30T12:20:50;100975.03;;;17.67;98.95
30897;BME280;64229;52.246;21.054;2023-09-30T12:23:17;100979.78;;;17.56;99.47
30897;BME280;64229;52.246;21.054;2023-09-30T12:25:43;100982.03;;;17.49;100.00
30897;BME280;64229;52.246;21.054;2023-09-30T12:28:08;100985.63;;;17.45;99.45
30897;BME280;64229;52.246;21.054;2023-09-30T12:30:34;100979.72;;;17.43;99.76
30897;BME280;64229;52.246;21.054;2023-09-30T12:32:59;100978.09;;;17.42;100.00
30897;BME280;64229;52.246;21.054;2023-09-30T12:35:24;100976.94;;;17.48;100.00
30897;BME280;64229;52.246;21.054;2023-09-30T12:37:50;100980.00;;;17.60;99.76
30897;BME280;64229;52.246;21.054;2023-09-30T12:40:15;100978.09;;;17.79;97.96
30897;BME280;64229;52.246;21.054;2023-09-30T12:42:42;100975.72;;;17.91;96.91
30897;BME280;64229;52.246;21.054;2023-09-30T12:45:08;100972.34;;;18.13;93.76
30897;BME280;64229;52.246;21.054;2023-09-30T12:47:34;100977.38;;;18.20;93.78
30897;BME280;64229;52.246;21.054;2023-09-30T12:49:59;100974.97;;;18.32;90.28